Time;durP1;ratioP1;P1;durP2;ratioP2;P2;SDS_P1;SDS_P2;PMS_P1;PMS_P2;Temp;Humidity;BMP_temperature;BMP_pressure;BME280_temperature;BME280_humidity;BME280_pressure;Samples;Min_cycle;Max_cycle;Signal;HPM_P1;HPM_P2
2023/08/27 00:00:53;;;;;;;2.70;2.50;;;25.40;60.10;;;;;;5079704;28;20033;-34
2023/08/27 00:03:19;;;;;;;2.38;2.17;;;25.40;59.70;;;;;;5077753;28;20032;-33
2023/08/27 00:05:45;;;;;;;2.37;2.17;;;25.40;59.70;;;;;;5078599;28;20029;-33
2023/08/27 00:08:12;;;;;;;2.60;2.40;;;25.40;59.80;;;;;;5060969;28;20043;-33
2023/08/27 00:10:38;;;;;;;2.50;2.30;;;25.40;60.00;;;;;;5074687;28;20488;-34
2023/08/27 00:13:04;;;;;;;2.60;2.40;;;25.30;59.90;;;;;;5072793;28;20067;-33
2023/08/27 00:15:30;;;;;;;2.30;2.10;;;25.30;59.70;;;;;;5071710;28;20409;-34
2023/08/27 00:17:56;;;;;;;2.67;2.28;;;25.30;59.80;;;;;;5072043;28;20324;-34
2023/08/27 00:20:22;;;;;;;2.17;1.98;;;25.30;59.40;;;;;;5064190;28;20051;-33
2023/08/27 00:22:49;;;;;;;2.30;2.10;;;25.20;59.90;;;;;;5065672;28;20036;-33
2023/08/27 00:25:15;;;;;;;2.28;2.08;;;25.20;59.10;;;;;;5064599;28;20783;-33
2023/08/27 00:27:41;;;;;;;2.40;2.20;;;25.20;59.50;;;;;;5064485;28;20104;-33
2023/08/27 00:30:07;;;;;;;2.20;2.00;;;25.20;58.80;;;;;;5056352;28;20537;-33
2023/08/27 00:32:34;;;;;;;2.50;2.30;;;25.20;59.10;;;;;;5071283;28;20039;-33
2023/08/27 00:35:00;;;;;;;2.05;1.95;;;25.10;59.30;;;;;;5053694;28;20049;-34
2023/08/27 00:37:26;;;;;;;1.98;1.88;;;25.10;59.60;;;;;;5069420;28;20029;-34
2023/08/27 00:39:53;;;;;;;2.17;2.03;;;25.10;59.40;;;;;;5071372;28;20029;-34
2023/08/27 00:42:19;;;;;;;2.38;2.17;;;25.00;59.30;;;;;;5076986;28;20057;-34
2023/08/27 00:44:45;;;;;;;2.45;2.25;;;25.00;59.30;;;;;;5070285;28;20037;-34
2023/08/27 00:47:11;;;;;;;2.00;1.85;;;25.00;59.60;;;;;;5063804;28;20029;-35
2023/08/27 00:49:38;;;;;;;2.35;2.15;;;25.00;59.40;;;;;;5070702;28;20111;-34
2023/08/27 00:52:05;;;;;;;2.80;2.30;;;25.00;59.60;;;;;;5072149;28;20060;-34
2023/08/27 00:54:33;;;;;;;2.10;1.90;;;24.90;59.40;;;;;;5054463;28;20037;-34
2023/08/27 00:56:59;;;;;;;1.88;1.77;;;24.90;59.40;;;;;;5078409;28;20037;-34
2023/08/27 00:59:25;;;;;;;2.00;1.90;;;24.90;59.60;;;;;;5064201;28;20033;-34
2023/08/27 01:01:52;;;;;;;2.00;1.90;;;24.90;59.50;;;;;;5070194;28;20269;-35
2023/08/27 01:04:18;;;;;;;2.10;1.90;;;24.80;59.30;;;;;;5070656;28;20033;-34
2023/08/27 01:06:44;;;;;;;2.23;2.03;;;24.80;59.10;;;;;;5070431;28;20043;-34
2023/08/27 01:09:24;;;;;;;1.95;1.77;;;24.80;59.10;;;;;;5075848;28;20061;-34
2023/08/27 01:12:09;;;;;;;1.80;1.70;;;24.80;59.10;;;;;;5038692;28;20035;-34
2023/08/27 01:14:36;;;;;;;2.00;1.90;;;24.70;58.80;;;;;;5046606;28;20029;-34
2023/08/27 01:17:05;;;;;;;2.30;2.10;;;24.70;58.90;;;;;;5055450;28;20046;-35
2023/08/27 01:19:31;;;;;;;2.00;1.85;;;24.70;58.90;;;;;;5063163;28;20037;-34
2023/08/27 01:21:57;;;;;;;2.38;2.17;;;24.60;59.40;;;;;;5055222;28;20028;-34
2023/08/27 01:24:23;;;;;;;2.15;1.98;;;24.60;58.70;;;;;;5067359;28;20112;-34
2023/08/27 01:27:13;;;;;;;2.15;1.95;;;24.60;58.90;;;;;;5076934;28;20032;-35
2023/08/27 01:30:27;;;;;;;2.30;2.10;;;24.60;59.10;;;;;;5043785;28;20041;-34
2023/08/27 01:33:16;;;;;;;1.95;1.83;;;24.50;59.20;;;;;;5037222;28;20114;-34
2023/08/27 01:35:44;;;;;;;2.17;1.98;;;24.50;59.00;;;;;;5041643;28;20037;-34
2023/08/27 01:38:11;;;;;;;2.17;1.98;;;24.50;59.30;;;;;;5049528;28;20041;-34
2023/08/27 01:40:38;;;;;;;2.10;1.90;;;24.50;59.10;;;;;;5047781;28;20025;-34
2023/08/27 01:43:04;;;;;;;1.83;1.73;;;24.50;58.80;;;;;;5045509;28;20096;-34
2023/08/27 01:45:30;;;;;;;2.20;2.00;;;24.40;59.20;;;;;;5054765;28;20112;-34
2023/08/27 01:47:56;;;;;;;2.03;1.83;;;24.40;59.20;;;;;;5058211;28;20041;-35
2023/08/27 01:50:22;;;;;;;2.08;1.88;;;24.30;59.20;;;;;;5050754;28;20036;-34
2023/08/27 01:52:49;;;;;;;2.38;2.17;;;24.30;59.00;;;;;;5051105;28;20087;-34
2023/08/27 01:55:15;;;;;;;2.10;2.00;;;24.30;58.90;;;;;;5053455;28;20079;-34
2023/08/27 01:57:41;;;;;;;2.87;2.10;;;24.30;58.90;;;;;;5058282;28;20126;-35
2023/08/27 02:00:11;;;;;;;2.20;2.00;;;24.30;58.90;;;;;;5058165;28;20063;-35
2023/08/27 02:02:37;;;;;;;2.28;2.08;;;24.20;59.00;;;;;;5053965;28;20028;-35
2023/08/27 02:05:06;;;;;;;1.98;1.80;;;24.20;58.90;;;;;;5052714;28;20040;-34
2023/08/27 02:07:37;;;;;;;2.05;1.83;;;24.20;58.80;;;;;;5064326;28;20049;-34
2023/08/27 02:10:07;;;;;;;2.42;2.22;;;24.10;58.70;;;;;;5048532;28;20094;-34
2023/08/27 02:12:33;;;;;;;1.88;1.77;;;24.10;59.10;;;;;;5064207;28;20406;-34
2023/08/27 02:14:59;;;;;;;2.50;2.30;;;24.10;59.30;;;;;;5054537;28;20025;-35
2023/08/27 02:17:25;;;;;;;2.42;2.22;;;24.10;59.20;;;;;;5054414;28;20038;-35
2023/08/27 02:19:51;;;;;;;2.10;2.00;;;24.10;59.00;;;;;;5044963;28;20033;-34
2023/08/27 02:22:17;;;;;;;2.10;1.93;;;24.00;58.90;;;;;;5053310;28;20029;-34
2023/08/27 02:24:43;;;;;;;2.33;2.13;;;24.00;59.30;;;;;;5046901;28;20095;-34
2023/08/27 02:27:10;;;;;;;2.20;2.00;;;24.00;58.80;;;;;;5053851;28;20044;-35
2023/08/27 02:29:36;;;;;;;2.50;2.30;;;24.00;58.80;;;;;;5053964;28;20036;-34
2023/08/27 02:32:03;;;;;;;2.45;2.25;;;24.00;58.90;;;;;;5056124;28;20067;-34
2023/08/27 02:34:29;;;;;;;2.78;2.53;;;23.90;58.70;;;;;;5069466;28;20056;-34
2023/08/27 02:36:56;;;;;;;2.20;2.00;;;23.90;58.80;;;;;;5063947;28;20108;-34
2023/08/27 02:39:23;;;;;;;2.53;2.33;;;23.90;59.00;;;;;;5077899;28;20092;-35
2023/08/27 02:41:49;;;;;;;2.47;2.28;;;23.80;59.20;;;;;;5082619;28;20033;-34
2023/08/27 02:44:15;;;;;;;2.50;2.30;;;23.80;59.10;;;;;;5074831;28;20130;-34
2023/08/27 02:46:41;;;;;;;2.63;2.42;;;23.80;59.10;;;;;;5066888;28;20401;-34
2023/08/27 02:49:07;;;;;;;2.53;2.33;;;23.70;59.30;;;;;;5069630;28;20024;-34
2023/08/27 02:51:33;;;;;;;2.45;2.25;;;23.70;59.10;;;;;;5070048;28;20089;-34
2023/08/27 02:54:20;;;;;;;2.53;2.33;;;23.70;59.20;;;;;;5030488;28;20044;-35
2023/08/27 02:56:46;;;;;;;2.45;2.25;;;23.70;59.20;;;;;;5024475;28;20045;-34
2023/08/27 02:59:12;;;;;;;2.40;2.20;;;23.70;58.90;;;;;;5027191;28;20056;-34
2023/08/27 03:01:38;;;;;;;2.33;2.13;;;23.60;59.10;;;;;;5033192;28;20449;-34
2023/08/27 03:04:04;;;;;;;2.00;1.90;;;23.60;59.00;;;;;;5031285;28;20041;-34
2023/08/27 03:06:30;;;;;;;2.38;2.17;;;23.60;58.70;;;;;;5018534;28;20118;-35
2023/08/27 03:08:57;;;;;;;2.50;2.30;;;23.60;58.80;;;;;;5030026;28;20045;-34
2023/08/27 03:11:23;;;;;;;2.40;2.20;;;23.50;59.00;;;;;;5022955;28;20069;-34
2023/08/27 03:13:49;;;;;;;2.47;2.28;;;23.50;58.90;;;;;;5023559;28;20040;-34
2023/08/27 03:16:15;;;;;;;3.00;2.47;;;23.50;58.90;;;;;;5033536;28;20037;-34
2023/08/27 03:18:41;;;;;;;2.60;2.40;;;23.50;59.40;;;;;;5023996;28;20042;-34
2023/08/27 03:21:07;;;;;;;2.28;2.08;;;23.40;59.10;;;;;;5025706;28;20029;-34
2023/08/27 03:23:36;;;;;;;2.45;2.25;;;23.40;59.10;;;;;;5025770;28;20030;-34
2023/08/27 03:26:03;;;;;;;2.45;2.25;;;23.40;59.60;;;;;;5024769;28;20061;-34
2023/08/27 03:28:29;;;;;;;2.22;2.03;;;23.30;59.40;;;;;;5020037;28;20085;-34
2023/08/27 03:30:56;;;;;;;2.53;2.33;;;23.30;59.10;;;;;;5035517;28;20529;-34
2023/08/27 03:33:22;;;;;;;2.17;1.97;;;23.30;59.30;;;;;;5068343;28;20028;-35
2023/08/27 03:35:54;;;;;;;2.45;2.25;;;23.30;59.20;;;;;;5072037;28;20033;-34
2023/08/27 03:38:21;;;;;;;2.75;2.55;;;23.30;59.00;;;;;;5068454;28;20029;-34
2023/08/27 03:40:50;;;;;;;2.70;2.50;;;23.20;59.20;;;;;;5064660;28;20032;-34
2023/08/27 03:43:16;;;;;;;2.92;2.60;;;23.20;59.10;;;;;;5053413;28;20299;-34
2023/08/27 03:45:43;;;;;;;2.78;2.30;;;23.20;58.90;;;;;;5071325;28;20646;-35
2023/08/27 03:48:09;;;;;;;2.60;2.40;;;23.20;59.10;;;;;;5064046;28;20041;-34
2023/08/27 03:50:36;;;;;;;2.30;2.10;;;23.20;59.00;;;;;;5066787;28;20056;-34
2023/08/27 03:53:03;;;;;;;2.60;2.40;;;23.10;59.50;;;;;;5049175;28;20033;-34
2023/08/27 03:55:30;;;;;;;2.55;2.35;;;23.10;59.10;;;;;;5065023;28;20078;-34
2023/08/27 03:57:56;;;;;;;2.53;2.30;;;23.10;59.20;;;;;;5047818;28;20040;-34
2023/08/27 04:00:22;;;;;;;2.23;2.03;;;23.10;59.20;;;;;;5070381;28;20039;-34
2023/08/27 04:02:49;;;;;;;2.60;2.40;;;23.00;59.30;;;;;;5071524;28;20354;-35
2023/08/27 04:05:15;;;;;;;2.33;2.13;;;23.00;59.50;;;;;;5064717;28;20814;-34
2023/08/27 04:07:42;;;;;;;2.67;2.47;;;23.00;59.60;;;;;;5072118;28;20042;-34
2023/08/27 04:10:08;;;;;;;2.42;2.10;;;23.00;59.50;;;;;;5057351;28;20044;-34
2023/08/27 04:12:34;;;;;;;2.45;2.25;;;22.90;59.70;;;;;;5063792;28;20036;-34
2023/08/27 04:15:00;;;;;;;2.40;2.20;;;22.90;59.60;;;;;;5072718;28;20040;-34
2023/08/27 04:17:26;;;;;;;2.58;2.20;;;22.80;59.30;;;;;;5072320;28;20025;-34
2023/08/27 04:19:53;;;;;;;2.60;2.40;;;22.80;59.10;;;;;;5064045;28;20567;-34
2023/08/27 04:22:19;;;;;;;2.85;2.65;;;22.80;59.20;;;;;;5070642;28;20752;-34
2023/08/27 04:24:45;;;;;;;2.38;2.17;;;22.80;59.10;;;;;;5070695;28;20033;-34
2023/08/27 04:27:11;;;;;;;2.40;2.20;;;22.80;59.20;;;;;;5067037;28;20033;-34
2023/08/27 04:29:37;;;;;;;2.50;2.30;;;22.80;59.10;;;;;;5067532;28;20029;-34
2023/08/27 04:32:04;;;;;;;2.97;2.67;;;22.70;59.00;;;;;;5067129;28;20048;-34
2023/08/27 04:34:30;;;;;;;2.97;2.67;;;22.70;59.10;;;;;;5068771;28;20033;-34
2023/08/27 04:36:56;;;;;;;2.70;2.50;;;22.70;59.30;;;;;;5071602;28;20112;-34
2023/08/27 04:39:22;;;;;;;2.50;2.30;;;22.70;59.20;;;;;;5075436;28;20150;-34
2023/08/27 04:41:49;;;;;;;2.95;2.65;;;22.60;59.40;;;;;;5080508;28;20031;-34
2023/08/27 04:44:15;;;;;;;2.40;2.20;;;22.60;59.60;;;;;;5071938;28;20039;-34
2023/08/27 04:46:41;;;;;;;2.60;2.40;;;22.60;59.60;;;;;;5067990;28;20025;-34
2023/08/27 04:49:07;;;;;;;2.95;2.75;;;22.60;60.10;;;;;;5067236;28;20082;-34
2023/08/27 04:51:33;;;;;;;3.58;2.25;;;22.50;59.60;;;;;;5074024;28;20024;-34
2023/08/27 04:53:59;;;;;;;2.58;2.38;;;22.50;59.70;;;;;;5077802;28;20040;-34
2023/08/27 04:56:25;;;;;;;2.50;2.30;;;22.50;59.60;;;;;;5076747;28;20058;-34
2023/08/27 04:58:51;;;;;;;2.63;2.42;;;22.50;59.50;;;;;;5065426;28;20128;-34
2023/08/27 05:01:18;;;;;;;2.25;2.05;;;22.40;59.20;;;;;;5075024;28;20024;-34
2023/08/27 05:03:44;;;;;;;2.72;2.53;;;22.40;59.30;;;;;;5080309;28;20103;-34
2023/08/27 05:06:10;;;;;;;2.50;2.30;;;22.40;59.30;;;;;;5070767;28;20056;-34
2023/08/27 05:08:36;;;;;;;2.55;2.35;;;22.40;59.50;;;;;;5070499;28;20032;-34
2023/08/27 05:11:02;;;;;;;2.72;2.53;;;22.30;59.20;;;;;;5077980;28;20025;-34
2023/08/27 05:13:28;;;;;;;2.70;2.50;;;22.30;59.40;;;;;;5064514;28;20048;-34
2023/08/27 05:15:55;;;;;;;2.50;2.30;;;22.30;59.60;;;;;;5064627;28;20115;-34
2023/08/27 05:18:21;;;;;;;2.63;2.42;;;22.30;59.60;;;;;;5081762;28;20028;-34
2023/08/27 05:20:47;;;;;;;2.80;2.50;;;22.30;59.50;;;;;;5079497;28;20111;-34
2023/08/27 05:23:13;;;;;;;2.58;2.38;;;22.20;59.50;;;;;;5062974;28;20035;-34
2023/08/27 05:25:39;;;;;;;2.50;2.25;;;22.20;59.70;;;;;;5063693;28;20089;-34
2023/08/27 05:28:05;;;;;;;2.63;2.42;;;22.20;59.80;;;;;;5080563;28;20036;-34
2023/08/27 05:30:31;;;;;;;2.75;2.55;;;22.20;60.00;;;;;;5080430;28;20024;-34
2023/08/27 05:32:58;;;;;;;2.80;2.50;;;22.10;59.80;;;;;;5064628;28;20033;-34
2023/08/27 05:35:24;;;;;;;2.70;2.50;;;22.10;59.80;;;;;;5067737;28;20144;-34
2023/08/27 05:37:50;;;;;;;2.60;2.40;;;22.10;59.80;;;;;;5072411;28;20044;-35
2023/08/27 05:40:17;;;;;;;2.57;2.37;;;22.10;59.60;;;;;;5062438;28;20064;-34
2023/08/27 05:42:43;;;;;;;2.93;2.60;;;22.00;59.70;;;;;;5060644;28;20274;-34
2023/08/27 05:45:09;;;;;;;2.70;2.50;;;22.00;59.60;;;;;;5060264;28;20033;-34
2023/08/27 05:47:35;;;;;;;2.70;2.50;;;22.00;59.60;;;;;;5076955;28;20481;-34
2023/08/27 05:50:02;;;;;;;2.45;2.25;;;22.00;59.70;;;;;;5071254;28;20033;-35
2023/08/27 05:52:28;;;;;;;2.85;2.65;;;22.00;59.80;;;;;;5074277;28;20139;-34
2023/08/27 05:54:54;;;;;;;2.55;2.35;;;21.90;59.80;;;;;;5078011;28;20036;-34
2023/08/27 05:57:20;;;;;;;2.90;2.70;;;21.90;59.70;;;;;;5069306;28;20040;-34
2023/08/27 05:59:46;;;;;;;2.75;2.55;;;21.90;59.90;;;;;;5063399;28;20067;-34
2023/08/27 06:02:13;;;;;;;2.95;2.70;;;21.90;59.90;;;;;;5056036;28;20484;-34
2023/08/27 06:04:40;;;;;;;2.85;2.65;;;21.80;59.80;;;;;;5062951;28;20036;-34
2023/08/27 06:07:08;;;;;;;2.83;2.63;;;21.80;60.00;;;;;;5071764;28;20097;-33
2023/08/27 06:09:33;;;;;;;;;;;21.80;60.00;;;;;;5068261;28;20128;-34
2023/08/27 06:12:00;;;;;;;2.58;2.33;;;21.80;60.20;;;;;;5064808;28;19928;-34
2023/08/27 06:14:26;;;;;;;3.28;2.92;;;21.80;60.50;;;;;;5049975;28;20025;-34
2023/08/27 06:16:52;;;;;;;2.70;2.50;;;21.70;60.10;;;;;;5063410;28;20131;-34
2023/08/27 06:19:18;;;;;;;3.30;2.90;;;21.70;59.90;;;;;;5061443;28;20041;-34
2023/08/27 06:21:44;;;;;;;2.58;2.38;;;21.70;60.00;;;;;;5070123;28;20033;-34
2023/08/27 06:24:10;;;;;;;2.90;2.70;;;21.70;59.80;;;;;;5072698;28;20132;-34
2023/08/27 06:26:37;;;;;;;2.60;2.40;;;21.70;59.90;;;;;;5073102;28;20084;-34
2023/08/27 06:29:04;;;;;;;2.80;2.60;;;21.60;60.00;;;;;;5052563;28;20056;-34
2023/08/27 06:31:30;;;;;;;2.80;2.60;;;21.60;59.80;;;;;;5063228;28;20496;-34
2023/08/27 06:33:56;;;;;;;2.60;2.40;;;21.60;59.70;;;;;;5070938;28;20045;-34
2023/08/27 06:36:22;;;;;;;2.80;2.60;;;21.60;59.80;;;;;;5075064;28;20749;-34
2023/08/27 06:38:49;;;;;;;2.97;2.78;;;21.60;59.80;;;;;;5069590;28;20135;-34
2023/08/27 06:41:15;;;;;;;2.72;2.53;;;21.50;59.90;;;;;;5062234;28;20033;-34
2023/08/27 06:43:41;;;;;;;3.20;2.92;;;21.50;60.20;;;;;;5076578;28;20029;-34
2023/08/27 06:46:08;;;;;;;2.97;2.78;;;21.50;60.30;;;;;;5072071;28;20063;-34
2023/08/27 06:48:34;;;;;;;3.20;2.90;;;21.50;60.30;;;;;;5073207;28;20032;-34
2023/08/27 06:51:00;;;;;;;2.92;2.72;;;21.40;60.30;;;;;;5070703;28;20024;-34
2023/08/27 06:53:27;;;;;;;2.97;2.72;;;21.40;60.30;;;;;;5071272;28;20077;-34
2023/08/27 06:55:53;;;;;;;3.08;2.70;;;21.40;60.40;;;;;;5075194;28;20033;-34
2023/08/27 06:58:19;;;;;;;2.90;2.60;;;21.40;60.30;;;;;;5076921;28;20058;-34
2023/08/27 07:00:45;;;;;;;2.80;2.60;;;21.30;60.10;;;;;;5074961;28;20033;-34
2023/08/27 07:03:12;;;;;;;4.30;2.43;;;21.30;60.00;;;;;;5069327;28;20055;-34
2023/08/27 07:05:38;;;;;;;2.92;2.67;;;21.30;60.20;;;;;;5078954;28;20020;-34
2023/08/27 07:08:05;;;;;;;2.90;2.70;;;21.30;60.10;;;;;;5080562;28;20123;-34
2023/08/27 07:10:31;;;;;;;2.97;2.20;;;21.30;60.00;;;;;;5082378;28;20013;-34
2023/08/27 07:12:57;;;;;;;3.50;3.20;;;21.20;60.00;;;;;;5075005;28;20308;-34
2023/08/27 07:15:23;;;;;;;3.13;2.83;;;21.20;60.10;;;;;;5078055;28;20035;-34
2023/08/27 07:17:49;;;;;;;3.28;2.95;;;21.20;59.90;;;;;;5066515;28;20344;-34
2023/08/27 07:20:15;;;;;;;2.63;2.42;;;21.20;60.30;;;;;;5064639;28;20033;-33
2023/08/27 07:22:42;;;;;;;2.88;2.67;;;21.20;60.40;;;;;;5065299;28;20028;-34
2023/08/27 07:25:11;;;;;;;2.90;2.17;;;21.10;60.20;;;;;;5072643;28;20039;-34
2023/08/27 07:27:37;;;;;;;3.25;2.95;;;21.10;61.60;;;;;;5078949;28;20050;-34
2023/08/27 07:30:04;;;;;;;3.05;2.78;;;21.10;62.30;;;;;;5080595;28;20032;-38
2023/08/27 07:32:31;;;;;;;3.20;3.00;;;21.10;62.60;;;;;;5073302;28;20035;-34
2023/08/27 07:34:57;;;;;;;3.17;2.88;;;21.10;62.90;;;;;;5066563;28;20105;-34
2023/08/27 07:37:23;;;;;;;3.53;3.13;;;21.10;63.10;;;;;;5070022;28;20037;-34
2023/08/27 07:39:50;;;;;;;3.30;3.00;;;21.10;63.20;;;;;;5071550;28;20036;-34
2023/08/27 07:42:16;;;;;;;2.80;2.60;;;21.10;63.50;;;;;;5072539;28;20032;-34
2023/08/27 07:44:42;;;;;;;3.35;3.05;;;21.10;63.70;;;;;;5072405;28;20033;-34
2023/08/27 07:47:08;;;;;;;3.30;3.00;;;21.10;63.80;;;;;;5064258;28;20035;-34
2023/08/27 07:49:34;;;;;;;3.50;3.20;;;21.10;64.00;;;;;;5064671;28;20450;-34
2023/08/27 07:52:00;;;;;;;3.05;2.75;;;21.10;64.10;;;;;;5063630;28;20120;-33
2023/08/27 07:54:26;;;;;;;2.60;2.40;;;21.10;64.30;;;;;;5072656;28;20485;-34
2023/08/27 07:56:53;;;;;;;3.45;3.15;;;21.10;64.50;;;;;;5075547;28;20033;-34
2023/08/27 07:59:19;;;;;;;3.30;3.00;;;21.10;64.60;;;;;;5075122;28;20032;-34
2023/08/27 08:01:45;;;;;;;3.40;3.10;;;21.10;64.70;;;;;;5074213;28;20035;-34
2023/08/27 08:04:11;;;;;;;3.28;2.97;;;21.10;64.80;;;;;;5071125;28;20809;-34
2023/08/27 08:06:37;;;;;;;3.30;2.70;;;21.10;64.90;;;;;;5071414;28;20028;-34
2023/08/27 08:09:04;;;;;;;3.60;3.30;;;21.10;65.00;;;;;;5073832;28;20052;-34
2023/08/27 08:11:30;;;;;;;3.40;3.10;;;21.10;65.20;;;;;;5068627;28;20056;-34
2023/08/27 08:13:56;;;;;;;3.40;3.10;;;21.20;65.30;;;;;;5079029;28;20036;-34
2023/08/27 08:16:24;;;;;;;3.35;3.05;;;21.20;65.50;;;;;;5069329;28;20028;-34
2023/08/27 08:18:50;;;;;;;3.40;3.10;;;21.20;65.60;;;;;;5064494;28;20465;-34
2023/08/27 08:21:17;;;;;;;3.17;2.88;;;21.20;65.70;;;;;;5070829;28;20031;-34
2023/08/27 08:23:43;;;;;;;3.65;3.35;;;21.20;65.80;;;;;;5064357;28;20029;-34
2023/08/27 08:26:10;;;;;;;3.20;2.90;;;21.20;65.90;;;;;;5072165;28;20029;-34
2023/08/27 08:28:36;;;;;;;3.58;3.28;;;21.20;66.10;;;;;;5078132;28;20028;-34
2023/08/27 08:31:03;;;;;;;3.50;3.20;;;21.30;66.20;;;;;;5073737;28;20056;-34
2023/08/27 08:33:29;;;;;;;3.53;3.22;;;21.30;66.40;;;;;;5074468;28;20032;-34
2023/08/27 08:35:55;;;;;;;3.10;2.80;;;21.30;66.40;;;;;;5074216;28;20045;-34
2023/08/27 08:38:21;;;;;;;2.92;2.72;;;21.30;66.50;;;;;;5081007;28;20036;-34
2023/08/27 08:40:58;;;;;;;3.50;3.20;;;21.30;66.50;;;;;;5080663;28;20025;-34
2023/08/27 08:43:47;;;;;;;3.13;2.83;;;21.30;66.60;;;;;;5051453;28;20029;-34
2023/08/27 08:46:18;;;;;;;3.45;3.15;;;21.30;67.50;;;;;;5050007;28;20027;-34
2023/08/27 08:48:47;;;;;;;3.78;3.47;;;21.40;66.90;;;;;;5055915;28;20104;-34
2023/08/27 08:51:13;;;;;;;3.65;3.35;;;21.40;66.90;;;;;;5052178;28;20017;-34
2023/08/27 08:53:47;;;;;;;3.53;3.22;;;21.40;66.90;;;;;;5055676;28;20569;-34
2023/08/27 08:56:44;;;;;;;3.70;3.40;;;21.40;66.90;;;;;;5036270;28;20033;-34
2023/08/27 08:59:10;;;;;;;3.15;2.85;;;21.40;66.90;;;;;;5027136;28;20059;-34
2023/08/27 09:01:36;;;;;;;3.85;3.45;;;21.40;66.90;;;;;;5036345;28;20032;-34
2023/08/27 09:04:03;;;;;;;3.60;3.30;;;21.40;66.90;;;;;;5036963;28;20044;-34
2023/08/27 09:06:30;;;;;;;3.50;3.20;;;21.40;67.00;;;;;;5036071;28;20024;-34
2023/08/27 09:08:56;;;;;;;3.55;3.25;;;21.50;67.10;;;;;;5034783;28;20033;-34
2023/08/27 09:11:23;;;;;;;3.45;3.15;;;21.50;67.20;;;;;;5032605;28;20089;-34
2023/08/27 09:13:49;;;;;;;3.63;3.33;;;21.50;67.30;;;;;;5034003;28;20040;-34
2023/08/27 09:16:15;;;;;;;3.60;3.30;;;21.50;67.40;;;;;;5049268;28;20041;-34
2023/08/27 09:18:41;;;;;;;3.60;3.30;;;21.50;67.50;;;;;;5033739;28;20033;-34
2023/08/27 09:21:07;;;;;;;3.28;2.95;;;21.50;67.50;;;;;;5047961;28;20040;-33
2023/08/27 09:23:37;;;;;;;3.60;3.30;;;21.50;67.70;;;;;;5054885;28;20059;-34
2023/08/27 09:26:04;;;;;;;3.85;3.55;;;21.50;68.40;;;;;;5063105;28;20028;-34
2023/08/27 09:28:31;;;;;;;;;;;21.50;67.80;;;;;;5075541;28;20027;-34
2023/08/27 09:30:58;;;;;;;3.58;3.28;;;21.60;67.80;;;;;;5073501;28;20436;-34
2023/08/27 09:33:41;;;;;;;4.03;3.33;;;21.60;67.70;;;;;;5058974;28;20032;-34
2023/08/27 09:36:08;;;;;;;3.97;3.58;;;21.60;67.70;;;;;;5062399;28;20041;-34
2023/08/27 09:38:34;;;;;;;3.70;3.40;;;21.60;67.70;;;;;;5071060;28;20044;-34
2023/08/27 09:41:14;;;;;;;3.77;3.47;;;21.60;67.60;;;;;;5071793;28;20040;-34
2023/08/27 09:43:40;;;;;;;3.72;3.42;;;21.60;67.70;;;;;;5055364;28;20450;-34
2023/08/27 09:46:13;;;;;;;4.05;3.65;;;21.60;67.70;;;;;;5058800;28;20021;-34
2023/08/27 09:48:39;;;;;;;3.72;3.42;;;21.60;67.80;;;;;;5069064;28;20024;-34
2023/08/27 09:51:05;;;;;;;3.67;3.38;;;21.70;67.90;;;;;;5070392;28;20533;-34
2023/08/27 09:53:32;;;;;;;3.83;3.53;;;21.70;68.00;;;;;;5073342;28;20044;-34
2023/08/27 09:55:58;;;;;;;4.53;4.13;;;21.70;68.00;;;;;;5070919;28;20051;-34
2023/08/27 09:58:27;;;;;;;4.15;3.72;;;21.70;68.10;;;;;;5069650;28;20045;-34
2023/08/27 10:01:00;;;;;;;4.32;3.92;;;21.70;68.20;;;;;;5062514;28;20025;-34
2023/08/27 10:03:30;;;;;;;4.13;3.78;;;21.70;68.40;;;;;;5061900;28;20063;-34
2023/08/27 10:05:56;;;;;;;3.42;3.20;;;21.70;68.40;;;;;;5044746;28;20025;-34
2023/08/27 10:08:22;;;;;;;3.60;3.30;;;21.70;68.30;;;;;;5061830;28;20033;-34
2023/08/27 10:10:49;;;;;;;3.90;3.53;;;21.70;68.40;;;;;;5069103;28;20063;-34
2023/08/27 10:13:15;;;;;;;4.00;3.42;;;21.70;68.30;;;;;;5061062;28;20033;-34
2023/08/27 10:15:41;;;;;;;3.58;3.28;;;21.70;68.20;;;;;;5051893;28;20517;-34
2023/08/27 10:18:12;;;;;;;3.63;3.22;;;21.70;68.20;;;;;;5064495;28;20048;-34
2023/08/27 10:20:39;;;;;;;3.88;3.58;;;21.80;68.20;;;;;;5072402;28;20030;-34
2023/08/27 10:23:05;;;;;;;3.60;3.30;;;21.70;68.20;;;;;;5025637;28;20055;-34
2023/08/27 10:25:32;;;;;;;4.10;3.80;;;21.80;68.30;;;;;;5081195;28;20035;-34
2023/08/27 10:27:58;;;;;;;4.13;3.75;;;21.80;68.50;;;;;;5055163;28;20041;-33
2023/08/27 10:30:24;;;;;;;4.03;3.72;;;21.80;68.50;;;;;;5047502;28;20159;-34
2023/08/27 10:32:51;;;;;;;4.20;3.80;;;21.80;68.60;;;;;;5055350;28;20029;-34
2023/08/27 10:35:17;;;;;;;4.40;4.00;;;21.80;68.70;;;;;;5070226;28;20037;-34
2023/08/27 10:37:44;;;;;;;3.75;3.45;;;21.80;68.80;;;;;;5083364;28;20041;-34
2023/08/27 10:40:12;;;;;;;4.18;3.78;;;21.80;68.80;;;;;;5044321;28;20485;-34
2023/08/27 10:42:38;;;;;;;4.40;4.00;;;21.80;68.80;;;;;;5051404;28;20044;-34
2023/08/27 10:45:20;;;;;;;4.13;3.73;;;21.80;68.90;;;;;;5072918;28;20088;-34
2023/08/27 10:48:09;;;;;;;3.75;3.45;;;21.80;69.00;;;;;;5073457;28;20379;-34
2023/08/27 10:50:51;;;;;;;3.90;3.50;;;21.80;68.90;;;;;;5070306;28;20056;-34
2023/08/27 10:53:20;;;;;;;3.90;3.60;;;21.80;68.80;;;;;;5059552;28;20112;-35
2023/08/27 10:55:50;;;;;;;3.97;3.58;;;21.90;68.90;;;;;;5055252;28;20033;-34
2023/08/27 10:58:22;;;;;;;3.65;3.35;;;21.80;68.80;;;;;;5036235;28;20067;-34
2023/08/27 11:01:02;;;;;;;4.13;3.72;;;21.90;69.70;;;;;;5047990;28;20063;-34
2023/08/27 11:03:47;;;;;;;4.30;3.90;;;21.90;69.00;;;;;;5050422;28;20044;-34
2023/08/27 11:06:13;;;;;;;3.92;3.63;;;21.90;69.00;;;;;;5039026;28;20128;-34
2023/08/27 11:08:42;;;;;;;3.97;3.67;;;21.90;69.10;;;;;;5052761;28;20044;-34
2023/08/27 11:11:15;;;;;;;3.80;3.50;;;21.90;69.20;;;;;;5050865;28;20288;-34
2023/08/27 11:13:41;;;;;;;3.97;3.67;;;21.90;69.20;;;;;;5054262;28;20037;-34
2023/08/27 11:16:16;;;;;;;4.00;3.70;;;21.90;69.30;;;;;;5053385;28;20037;-34
2023/08/27 11:18:50;;;;;;;4.15;3.75;;;21.90;69.30;;;;;;5053687;28;20047;-34
2023/08/27 11:21:25;;;;;;;4.13;3.72;;;21.90;69.30;;;;;;5048084;28;20029;-34
2023/08/27 11:24:16;;;;;;;4.18;3.80;;;22.00;69.40;;;;;;5066444;28;20025;-34
2023/08/27 11:26:43;;;;;;;4.55;4.15;;;21.90;69.50;;;;;;5074832;28;20029;-34
2023/08/27 11:29:10;;;;;;;4.13;3.75;;;22.00;69.60;;;;;;5067716;28;20037;-34
2023/08/27 11:31:43;;;;;;;4.30;3.90;;;21.90;69.60;;;;;;5067930;28;20067;-34
2023/08/27 11:34:16;;;;;;;3.95;3.63;;;21.90;69.60;;;;;;5054331;28;20051;-34
2023/08/27 11:36:43;;;;;;;4.82;4.32;;;22.00;69.60;;;;;;5072462;28;20033;-33
2023/08/27 11:39:12;;;;;;;;;;;22.00;69.70;;;;;;5059862;28;20040;-34
2023/08/27 11:41:39;;;;;;;4.10;3.70;;;22.00;69.70;;;;;;5075692;28;19971;-34
2023/08/27 11:44:10;;;;;;;4.05;3.75;;;22.00;69.70;;;;;;5070814;28;20036;-34
2023/08/27 11:46:36;;;;;;;4.20;3.80;;;22.00;69.70;;;;;;5065126;28;20045;-34
2023/08/27 11:49:03;;;;;;;3.88;3.58;;;22.00;69.70;;;;;;5073921;28;20032;-34
2023/08/27 11:51:29;;;;;;;4.13;3.83;;;22.00;69.80;;;;;;5062641;28;20028;-34
2023/08/27 11:53:55;;;;;;;3.78;3.47;;;22.00;69.80;;;;;;5066524;28;20079;-34
2023/08/27 11:56:22;;;;;;;4.28;3.88;;;22.00;69.80;;;;;;5081697;28;20036;-34
2023/08/27 11:58:53;;;;;;;4.60;4.20;;;22.00;69.80;;;;;;5067862;28;20045;-34
2023/08/27 12:01:20;;;;;;;4.13;3.75;;;22.10;69.90;;;;;;5071519;28;20025;-34
2023/08/27 12:03:49;;;;;;;4.00;3.70;;;22.10;70.00;;;;;;5052355;28;20029;-34
2023/08/27 12:06:28;;;;;;;4.30;3.90;;;22.00;70.00;;;;;;5063184;28;20033;-34
2023/08/27 12:08:55;;;;;;;4.00;3.70;;;22.00;70.00;;;;;;5078027;28;20135;-37
2023/08/27 12:11:28;;;;;;;4.50;4.10;;;22.10;70.10;;;;;;5081242;28;20431;-34
2023/08/27 12:14:01;;;;;;;4.28;3.92;;;22.00;70.10;;;;;;5073062;28;20052;-34
2023/08/27 12:16:31;;;;;;;3.92;3.63;;;22.10;70.00;;;;;;5046888;28;20059;-34
2023/08/27 12:19:03;;;;;;;4.00;3.70;;;22.10;70.10;;;;;;5071578;28;20037;-34
2023/08/27 12:21:33;;;;;;;3.70;3.40;;;22.10;70.10;;;;;;5064718;28;20051;-34
2023/08/27 12:24:00;;;;;;;3.88;3.58;;;22.10;70.10;;;;;;5077293;28;20033;-34
2023/08/27 12:26:26;;;;;;;4.22;3.85;;;22.10;70.10;;;;;;5074194;28;20119;-34
2023/08/27 12:28:52;;;;;;;4.28;3.88;;;22.10;70.10;;;;;;5073653;28;20040;-34
2023/08/27 12:31:25;;;;;;;5.03;4.28;;;22.10;70.20;;;;;;5053210;28;20025;-34
2023/08/27 12:33:57;;;;;;;3.85;3.55;;;22.10;70.30;;;;;;5064138;28;20151;-34
2023/08/27 12:36:24;;;;;;;3.70;3.40;;;22.10;70.30;;;;;;5063611;28;20016;-34
2023/08/27 12:38:50;;;;;;;4.30;4.00;;;22.10;70.30;;;;;;5079324;28;20393;-34
2023/08/27 12:41:17;;;;;;;4.43;4.03;;;22.20;70.50;;;;;;5060334;28;20032;-34
2023/08/27 12:43:43;;;;;;;4.50;4.10;;;22.20;70.50;;;;;;5070854;28;20070;-34
2023/08/27 12:46:09;;;;;;;4.45;4.05;;;22.10;70.50;;;;;;5071622;28;20033;-34
2023/08/27 12:48:35;;;;;;;4.10;3.80;;;22.10;70.60;;;;;;5064239;28;20025;-34
2023/08/27 12:51:02;;;;;;;3.85;3.55;;;22.20;70.80;;;;;;5071424;28;20029;-34